Terminal Aerodrome Forecast
Issued by NWS

Home | Current Version | Previous Version | Text Only | Print | Product List | Glossary On
Versions: 1 2 3 4 5 6 7 8 9 10 11 12 13 14
000
FTUS45 KLKN 251641 AAB
TAFELY
TAF AMD
KELY 251641Z 2517/2612 32010G20KT 3SM -SHSN SCT025 BKN050
      TEMPO 2517/2518 3/4SM -SN BR OVC012
     FM251800 35011G21KT P6SM BKN050
     FM260000 VRB06KT P6SM FEW050 SCT200
     FM260800 18008KT P6SM BKN040=

USA.gov is the U.S. government's official web portal to all federal, state and local government web resources and services.